sensor_id;sensor_type;location;lat;lon;timestamp;P1;durP1;ratioP1;P2;durP2;ratioP2
37701;SDS011;23548;51.196;6.838;2024-01-15T00:02:04;54.63;;;25.30;;
37701;SDS011;23548;51.196;6.838;2024-01-15T00:04:31;57.22;;;24.23;;
37701;SDS011;23548;51.196;6.838;2024-01-15T00:07:06;62.13;;;25.20;;
37701;SDS011;23548;51.196;6.838;2024-01-15T00:09:32;60.08;;;26.83;;
37701;SDS011;23548;51.196;6.838;2024-01-15T00:11:59;62.25;;;26.80;;
37701;SDS011;23548;51.196;6.838;2024-01-15T00:14:25;66.05;;;26.52;;
37701;SDS011;23548;51.196;6.838;2024-01-15T00:16:51;74.82;;;29.08;;
37701;SDS011;23548;51.196;6.838;2024-01-15T00:19:20;71.90;;;28.45;;
37701;SDS011;23548;51.196;6.838;2024-01-15T00:21:46;72.63;;;28.33;;
37701;SDS011;23548;51.196;6.838;2024-01-15T00:24:11;71.57;;;29.40;;
37701;SDS011;23548;51.196;6.838;2024-01-15T00:26:37;73.78;;;28.90;;
37701;SDS011;23548;51.196;6.838;2024-01-15T00:29:03;67.95;;;26.95;;
37701;SDS011;23548;51.196;6.838;2024-01-15T00:31:29;74.10;;;29.45;;
37701;SDS011;23548;51.196;6.838;2024-01-15T00:33:55;80.93;;;30.25;;
37701;SDS011;23548;51.196;6.838;2024-01-15T00:36:22;76.15;;;28.98;;
37701;SDS011;23548;51.196;6.838;2024-01-15T00:38:48;76.28;;;29.30;;
37701;SDS011;23548;51.196;6.838;2024-01-15T00:41:14;68.10;;;29.00;;
37701;SDS011;23548;51.196;6.838;2024-01-15T00:43:40;71.65;;;30.38;;
37701;SDS011;23548;51.196;6.838;2024-01-15T00:46:06;72.18;;;28.75;;
37701;SDS011;23548;51.196;6.838;2024-01-15T00:48:32;67.18;;;29.35;;
37701;SDS011;23548;51.196;6.838;2024-01-15T00:50:57;70.75;;;29.25;;
37701;SDS011;23548;51.196;6.838;2024-01-15T00:53:23;65.57;;;26.90;;
37701;SDS011;23548;51.196;6.838;2024-01-15T00:55:50;65.55;;;28.17;;
37701;SDS011;23548;51.196;6.838;2024-01-15T00:58:16;67.93;;;28.70;;
37701;SDS011;23548;51.196;6.838;2024-01-15T01:00:42;73.45;;;30.45;;
37701;SDS011;23548;51.196;6.838;2024-01-15T01:03:08;66.10;;;29.10;;
37701;SDS011;23548;51.196;6.838;2024-01-15T01:05:34;66.93;;;28.55;;
37701;SDS011;23548;51.196;6.838;2024-01-15T01:08:00;68.10;;;27.23;;
37701;SDS011;23548;51.196;6.838;2024-01-15T01:10:26;64.82;;;27.77;;
37701;SDS011;23548;51.196;6.838;2024-01-15T01:12:52;66.13;;;27.02;;
37701;SDS011;23548;51.196;6.838;2024-01-15T01:15:18;69.55;;;29.77;;
37701;SDS011;23548;51.196;6.838;2024-01-15T01:17:43;65.50;;;27.17;;
37701;SDS011;23548;51.196;6.838;2024-01-15T01:20:09;64.55;;;26.35;;
37701;SDS011;23548;51.196;6.838;2024-01-15T01:22:35;67.68;;;28.40;;
37701;SDS011;23548;51.196;6.838;2024-01-15T01:25:02;63.40;;;26.92;;
37701;SDS011;23548;51.196;6.838;2024-01-15T01:27:28;68.38;;;27.75;;
37701;SDS011;23548;51.196;6.838;2024-01-15T01:29:54;69.15;;;28.17;;
37701;SDS011;23548;51.196;6.838;2024-01-15T01:32:19;62.88;;;26.63;;
37701;SDS011;23548;51.196;6.838;2024-01-15T01:34:46;62.25;;;27.58;;
37701;SDS011;23548;51.196;6.838;2024-01-15T01:37:11;53.53;;;24.55;;
37701;SDS011;23548;51.196;6.838;2024-01-15T01:39:40;58.50;;;25.73;;
37701;SDS011;23548;51.196;6.838;2024-01-15T01:42:07;53.58;;;23.70;;
37701;SDS011;23548;51.196;6.838;2024-01-15T01:44:33;56.72;;;24.90;;
37701;SDS011;23548;51.196;6.838;2024-01-15T01:46:58;61.45;;;26.52;;
37701;SDS011;23548;51.196;6.838;2024-01-15T01:49:25;66.25;;;28.15;;
37701;SDS011;23548;51.196;6.838;2024-01-15T01:51:52;60.08;;;25.67;;
37701;SDS011;23548;51.196;6.838;2024-01-15T01:54:20;59.97;;;26.55;;
37701;SDS011;23548;51.196;6.838;2024-01-15T01:56:46;59.38;;;28.00;;
37701;SDS011;23548;51.196;6.838;2024-01-15T01:59:13;56.80;;;26.60;;
37701;SDS011;23548;51.196;6.838;2024-01-15T02:01:39;64.78;;;27.48;;
37701;SDS011;23548;51.196;6.838;2024-01-15T02:04:07;56.80;;;26.25;;
37701;SDS011;23548;51.196;6.838;2024-01-15T02:06:34;57.40;;;25.88;;
37701;SDS011;23548;51.196;6.838;2024-01-15T02:08:59;54.20;;;23.92;;
37701;SDS011;23548;51.196;6.838;2024-01-15T02:11:26;58.85;;;25.67;;
37701;SDS011;23548;51.196;6.838;2024-01-15T02:13:52;58.70;;;25.67;;
37701;SDS011;23548;51.196;6.838;2024-01-15T02:16:18;50.78;;;24.58;;
37701;SDS011;23548;51.196;6.838;2024-01-15T02:18:44;51.42;;;24.58;;
37701;SDS011;23548;51.196;6.838;2024-01-15T02:24:32;52.25;;;23.35;;
37701;SDS011;23548;51.196;6.838;2024-01-15T02:26:58;51.88;;;23.10;;
37701;SDS011;23548;51.196;6.838;2024-01-15T02:29:24;50.80;;;24.45;;
37701;SDS011;23548;51.196;6.838;2024-01-15T02:31:50;52.67;;;24.20;;
37701;SDS011;23548;51.196;6.838;2024-01-15T02:34:16;50.20;;;22.48;;
37701;SDS011;23548;51.196;6.838;2024-01-15T02:36:41;49.85;;;23.10;;
37701;SDS011;23548;51.196;6.838;2024-01-15T02:39:07;52.10;;;22.67;;
37701;SDS011;23548;51.196;6.838;2024-01-15T02:41:33;49.08;;;22.52;;
37701;SDS011;23548;51.196;6.838;2024-01-15T02:43:59;50.58;;;22.90;;
37701;SDS011;23548;51.196;6.838;2024-01-15T02:46:24;47.25;;;22.30;;
37701;SDS011;23548;51.196;6.838;2024-01-15T02:48:50;48.58;;;23.38;;
37701;SDS011;23548;51.196;6.838;2024-01-15T02:51:16;55.80;;;22.10;;
37701;SDS011;23548;51.196;6.838;2024-01-15T02:53:41;52.67;;;23.48;;
37701;SDS011;23548;51.196;6.838;2024-01-15T02:56:07;46.53;;;22.00;;
37701;SDS011;23548;51.196;6.838;2024-01-15T02:58:33;50.70;;;23.13;;
37701;SDS011;23548;51.196;6.838;2024-01-15T03:00:58;47.20;;;21.73;;
37701;SDS011;23548;51.196;6.838;2024-01-15T03:03:24;52.22;;;23.15;;
37701;SDS011;23548;51.196;6.838;2024-01-15T03:05:50;49.75;;;23.02;;
37701;SDS011;23548;51.196;6.838;2024-01-15T03:08:16;47.75;;;22.48;;
37701;SDS011;23548;51.196;6.838;2024-01-15T03:10:42;49.42;;;21.45;;
37701;SDS011;23548;51.196;6.838;2024-01-15T03:13:08;48.83;;;22.15;;
37701;SDS011;23548;51.196;6.838;2024-01-15T03:15:34;43.40;;;21.23;;
37701;SDS011;23548;51.196;6.838;2024-01-15T03:17:59;45.67;;;20.95;;
37701;SDS011;23548;51.196;6.838;2024-01-15T03:20:25;41.35;;;20.08;;
37701;SDS011;23548;51.196;6.838;2024-01-15T03:22:51;41.92;;;19.88;;
37701;SDS011;23548;51.196;6.838;2024-01-15T03:25:16;38.45;;;19.55;;
37701;SDS011;23548;51.196;6.838;2024-01-15T03:27:42;40.88;;;20.30;;
37701;SDS011;23548;51.196;6.838;2024-01-15T03:30:08;43.30;;;19.55;;
37701;SDS011;23548;51.196;6.838;2024-01-15T03:32:34;34.90;;;17.48;;
37701;SDS011;23548;51.196;6.838;2024-01-15T03:35:00;35.85;;;17.25;;
37701;SDS011;23548;51.196;6.838;2024-01-15T03:37:26;36.83;;;17.58;;
37701;SDS011;23548;51.196;6.838;2024-01-15T03:39:51;39.38;;;17.83;;
37701;SDS011;23548;51.196;6.838;2024-01-15T03:42:17;34.35;;;18.00;;
37701;SDS011;23548;51.196;6.838;2024-01-15T03:44:43;39.40;;;17.50;;
37701;SDS011;23548;51.196;6.838;2024-01-15T03:47:08;31.80;;;16.40;;
37701;SDS011;23548;51.196;6.838;2024-01-15T03:49:34;36.85;;;17.63;;
37701;SDS011;23548;51.196;6.838;2024-01-15T03:52:00;37.13;;;17.63;;
37701;SDS011;23548;51.196;6.838;2024-01-15T03:54:25;37.88;;;18.45;;
37701;SDS011;23548;51.196;6.838;2024-01-15T03:56:52;38.95;;;17.27;;
37701;SDS011;23548;51.196;6.838;2024-01-15T03:59:17;37.30;;;17.75;;
37701;SDS011;23548;51.196;6.838;2024-01-15T04:01:48;35.33;;;17.55;;
37701;SDS011;23548;51.196;6.838;2024-01-15T04:04:17;38.22;;;18.45;;
37701;SDS011;23548;51.196;6.838;2024-01-15T04:06:44;35.45;;;17.17;;
37701;SDS011;23548;51.196;6.838;2024-01-15T04:09:09;35.70;;;18.70;;
37701;SDS011;23548;51.196;6.838;2024-01-15T04:11:36;33.67;;;17.25;;
37701;SDS011;23548;51.196;6.838;2024-01-15T04:14:02;35.80;;;16.63;;
37701;SDS011;23548;51.196;6.838;2024-01-15T04:16:27;41.20;;;17.42;;
37701;SDS011;23548;51.196;6.838;2024-01-15T04:18:53;39.03;;;16.98;;
37701;SDS011;23548;51.196;6.838;2024-01-15T04:21:19;36.45;;;17.60;;
37701;SDS011;23548;51.196;6.838;2024-01-15T04:23:44;31.45;;;15.73;;
37701;SDS011;23548;51.196;6.838;2024-01-15T04:26:10;31.67;;;16.33;;
37701;SDS011;23548;51.196;6.838;2024-01-15T04:28:36;36.10;;;15.77;;
37701;SDS011;23548;51.196;6.838;2024-01-15T04:31:01;30.33;;;15.20;;
37701;SDS011;23548;51.196;6.838;2024-01-15T04:33:27;33.90;;;16.17;;
37701;SDS011;23548;51.196;6.838;2024-01-15T04:35:53;28.15;;;13.77;;
37701;SDS011;23548;51.196;6.838;2024-01-15T04:38:19;34.55;;;16.42;;
37701;SDS011;23548;51.196;6.838;2024-01-15T04:40:45;32.55;;;15.20;;
37701;SDS011;23548;51.196;6.838;2024-01-15T04:43:10;31.52;;;15.18;;
37701;SDS011;23548;51.196;6.838;2024-01-15T04:45:36;27.08;;;15.25;;
37701;SDS011;23548;51.196;6.838;2024-01-15T04:48:02;27.70;;;14.98;;
37701;SDS011;23548;51.196;6.838;2024-01-15T04:50:28;29.83;;;14.70;;
37701;SDS011;23548;51.196;6.838;2024-01-15T04:52:53;29.50;;;15.77;;
37701;SDS011;23548;51.196;6.838;2024-01-15T04:55:19;32.80;;;14.98;;
37701;SDS011;23548;51.196;6.838;2024-01-15T04:57:45;31.88;;;13.98;;
37701;SDS011;23548;51.196;6.838;2024-01-15T05:00:11;30.67;;;15.30;;
37701;SDS011;23548;51.196;6.838;2024-01-15T05:02:38;27.92;;;14.98;;
37701;SDS011;23548;51.196;6.838;2024-01-15T05:05:04;32.78;;;14.90;;
37701;SDS011;23548;51.196;6.838;2024-01-15T05:07:30;27.95;;;14.90;;
37701;SDS011;23548;51.196;6.838;2024-01-15T05:09:55;34.13;;;15.07;;
37701;SDS011;23548;51.196;6.838;2024-01-15T05:12:21;26.92;;;14.70;;
37701;SDS011;23548;51.196;6.838;2024-01-15T05:14:47;33.30;;;14.45;;
37701;SDS011;23548;51.196;6.838;2024-01-15T05:17:13;27.55;;;13.23;;
37701;SDS011;23548;51.196;6.838;2024-01-15T05:19:38;28.20;;;13.98;;
37701;SDS011;23548;51.196;6.838;2024-01-15T05:22:04;24.48;;;11.40;;
37701;SDS011;23548;51.196;6.838;2024-01-15T05:24:30;33.25;;;14.23;;
37701;SDS011;23548;51.196;6.838;2024-01-15T05:26:56;25.45;;;12.43;;
37701;SDS011;23548;51.196;6.838;2024-01-15T05:29:21;26.67;;;13.10;;
37701;SDS011;23548;51.196;6.838;2024-01-15T05:31:48;23.27;;;12.38;;
37701;SDS011;23548;51.196;6.838;2024-01-15T05:34:13;26.35;;;12.90;;
37701;SDS011;23548;51.196;6.838;2024-01-15T05:36:39;24.65;;;12.52;;
37701;SDS011;23548;51.196;6.838;2024-01-15T05:39:05;27.60;;;13.00;;
37701;SDS011;23548;51.196;6.838;2024-01-15T05:41:30;24.00;;;12.98;;
37701;SDS011;23548;51.196;6.838;2024-01-15T05:43:56;30.55;;;13.98;;
37701;SDS011;23548;51.196;6.838;2024-01-15T05:46:22;27.15;;;12.52;;
37701;SDS011;23548;51.196;6.838;2024-01-15T05:48:47;31.40;;;12.52;;
37701;SDS011;23548;51.196;6.838;2024-01-15T05:51:13;22.95;;;12.73;;
37701;SDS011;23548;51.196;6.838;2024-01-15T05:53:39;24.13;;;12.32;;
37701;SDS011;23548;51.196;6.838;2024-01-15T05:56:06;30.48;;;12.43;;
37701;SDS011;23548;51.196;6.838;2024-01-15T05:58:32;26.27;;;12.88;;
37701;SDS011;23548;51.196;6.838;2024-01-15T06:00:58;22.55;;;12.07;;
37701;SDS011;23548;51.196;6.838;2024-01-15T06:03:23;31.63;;;12.23;;
37701;SDS011;23548;51.196;6.838;2024-01-15T06:05:49;25.52;;;10.80;;
37701;SDS011;23548;51.196;6.838;2024-01-15T06:08:15;25.63;;;12.07;;
37701;SDS011;23548;51.196;6.838;2024-01-15T06:10:40;20.95;;;10.75;;
37701;SDS011;23548;51.196;6.838;2024-01-15T06:13:06;19.80;;;11.40;;
37701;SDS011;23548;51.196;6.838;2024-01-15T06:15:32;22.20;;;10.95;;
37701;SDS011;23548;51.196;6.838;2024-01-15T06:17:57;22.73;;;10.70;;
37701;SDS011;23548;51.196;6.838;2024-01-15T06:20:23;20.58;;;11.57;;
37701;SDS011;23548;51.196;6.838;2024-01-15T06:22:49;19.05;;;10.48;;
37701;SDS011;23548;51.196;6.838;2024-01-15T06:25:15;20.05;;;10.65;;
37701;SDS011;23548;51.196;6.838;2024-01-15T06:27:40;24.90;;;10.05;;
37701;SDS011;23548;51.196;6.838;2024-01-15T06:30:06;20.33;;;10.35;;
37701;SDS011;23548;51.196;6.838;2024-01-15T06:32:32;21.15;;;10.70;;
37701;SDS011;23548;51.196;6.838;2024-01-15T06:34:58;19.52;;;10.82;;
37701;SDS011;23548;51.196;6.838;2024-01-15T06:37:23;23.75;;;10.75;;
37701;SDS011;23548;51.196;6.838;2024-01-15T06:39:49;20.08;;;9.77;;
37701;SDS011;23548;51.196;6.838;2024-01-15T06:42:15;18.90;;;10.25;;
37701;SDS011;23548;51.196;6.838;2024-01-15T06:44:40;18.05;;;9.50;;
37701;SDS011;23548;51.196;6.838;2024-01-15T06:47:06;21.27;;;9.02;;
37701;SDS011;23548;51.196;6.838;2024-01-15T06:49:32;20.08;;;10.18;;
37701;SDS011;23548;51.196;6.838;2024-01-15T06:51:58;17.27;;;9.10;;
37701;SDS011;23548;51.196;6.838;2024-01-15T06:54:23;20.50;;;10.27;;
37701;SDS011;23548;51.196;6.838;2024-01-15T06:56:51;14.90;;;8.70;;
37701;SDS011;23548;51.196;6.838;2024-01-15T06:59:16;17.20;;;10.07;;
37701;SDS011;23548;51.196;6.838;2024-01-15T07:01:42;20.80;;;10.35;;
37701;SDS011;23548;51.196;6.838;2024-01-15T07:04:08;20.90;;;11.02;;
37701;SDS011;23548;51.196;6.838;2024-01-15T07:06:34;21.25;;;11.70;;
37701;SDS011;23548;51.196;6.838;2024-01-15T07:08:59;25.55;;;12.15;;
37701;SDS011;23548;51.196;6.838;2024-01-15T07:11:25;21.63;;;12.80;;
37701;SDS011;23548;51.196;6.838;2024-01-15T07:13:51;26.17;;;13.70;;
37701;SDS011;23548;51.196;6.838;2024-01-15T07:16:16;23.80;;;13.73;;
37701;SDS011;23548;51.196;6.838;2024-01-15T07:18:42;26.00;;;12.80;;
37701;SDS011;23548;51.196;6.838;2024-01-15T07:21:08;26.83;;;13.55;;
37701;SDS011;23548;51.196;6.838;2024-01-15T07:23:34;28.35;;;13.30;;
37701;SDS011;23548;51.196;6.838;2024-01-15T07:25:59;29.33;;;14.80;;
37701;SDS011;23548;51.196;6.838;2024-01-15T07:28:25;32.55;;;15.23;;
37701;SDS011;23548;51.196;6.838;2024-01-15T07:30:54;31.02;;;15.65;;
37701;SDS011;23548;51.196;6.838;2024-01-15T07:33:19;30.52;;;16.10;;
37701;SDS011;23548;51.196;6.838;2024-01-15T07:35:45;32.40;;;16.45;;
37701;SDS011;23548;51.196;6.838;2024-01-15T07:38:11;29.65;;;15.98;;
37701;SDS011;23548;51.196;6.838;2024-01-15T07:40:37;25.98;;;15.02;;
37701;SDS011;23548;51.196;6.838;2024-01-15T07:43:03;34.80;;;15.95;;
37701;SDS011;23548;51.196;6.838;2024-01-15T07:45:29;30.95;;;14.35;;
37701;SDS011;23548;51.196;6.838;2024-01-15T07:47:55;27.33;;;14.98;;
37701;SDS011;23548;51.196;6.838;2024-01-15T07:50:21;31.27;;;15.60;;
37701;SDS011;23548;51.196;6.838;2024-01-15T07:52:46;29.48;;;15.20;;
37701;SDS011;23548;51.196;6.838;2024-01-15T07:55:12;29.23;;;14.13;;
37701;SDS011;23548;51.196;6.838;2024-01-15T07:57:38;31.48;;;14.60;;
37701;SDS011;23548;51.196;6.838;2024-01-15T08:00:04;29.27;;;14.68;;
37701;SDS011;23548;51.196;6.838;2024-01-15T08:02:30;31.52;;;16.30;;
37701;SDS011;23548;51.196;6.838;2024-01-15T08:04:57;29.58;;;15.68;;
37701;SDS011;23548;51.196;6.838;2024-01-15T08:07:24;28.17;;;15.52;;
37701;SDS011;23548;51.196;6.838;2024-01-15T08:09:50;31.90;;;16.33;;
37701;SDS011;23548;51.196;6.838;2024-01-15T08:12:17;34.35;;;17.02;;
37701;SDS011;23548;51.196;6.838;2024-01-15T08:14:43;33.33;;;18.08;;
37701;SDS011;23548;51.196;6.838;2024-01-15T08:17:08;34.80;;;17.08;;
37701;SDS011;23548;51.196;6.838;2024-01-15T08:19:34;35.60;;;17.60;;
37701;SDS011;23548;51.196;6.838;2024-01-15T08:22:00;31.67;;;16.55;;
37701;SDS011;23548;51.196;6.838;2024-01-15T08:24:25;38.55;;;18.92;;
37701;SDS011;23548;51.196;6.838;2024-01-15T08:26:51;43.33;;;19.77;;
37701;SDS011;23548;51.196;6.838;2024-01-15T08:29:17;41.80;;;19.65;;
37701;SDS011;23548;51.196;6.838;2024-01-15T08:31:45;44.03;;;20.13;;
37701;SDS011;23548;51.196;6.838;2024-01-15T08:34:11;39.30;;;19.40;;
37701;SDS011;23548;51.196;6.838;2024-01-15T08:36:37;36.05;;;19.08;;
37701;SDS011;23548;51.196;6.838;2024-01-15T08:39:03;39.53;;;19.27;;
37701;SDS011;23548;51.196;6.838;2024-01-15T08:41:31;36.90;;;17.88;;
37701;SDS011;23548;51.196;6.838;2024-01-15T08:43:57;38.22;;;18.92;;
37701;SDS011;23548;51.196;6.838;2024-01-15T08:46:23;39.85;;;18.92;;
37701;SDS011;23548;51.196;6.838;2024-01-15T08:48:49;41.60;;;18.83;;
37701;SDS011;23548;51.196;6.838;2024-01-15T08:51:15;38.78;;;19.08;;
37701;SDS011;23548;51.196;6.838;2024-01-15T08:53:40;37.55;;;17.73;;
37701;SDS011;23548;51.196;6.838;2024-01-15T08:56:06;39.38;;;18.80;;
37701;SDS011;23548;51.196;6.838;2024-01-15T08:58:33;42.95;;;18.27;;
37701;SDS011;23548;51.196;6.838;2024-01-15T09:00:59;41.25;;;19.85;;
37701;SDS011;23548;51.196;6.838;2024-01-15T09:03:25;40.45;;;19.98;;
37701;SDS011;23548;51.196;6.838;2024-01-15T09:05:51;40.60;;;19.92;;
37701;SDS011;23548;51.196;6.838;2024-01-15T09:08:17;42.10;;;20.27;;
37701;SDS011;23548;51.196;6.838;2024-01-15T09:10:43;35.88;;;19.27;;
37701;SDS011;23548;51.196;6.838;2024-01-15T09:13:09;37.70;;;19.58;;
37701;SDS011;23548;51.196;6.838;2024-01-15T09:15:34;34.40;;;19.65;;
37701;SDS011;23548;51.196;6.838;2024-01-15T09:18:00;40.58;;;19.75;;
37701;SDS011;23548;51.196;6.838;2024-01-15T09:20:27;39.45;;;19.95;;
37701;SDS011;23548;51.196;6.838;2024-01-15T09:22:53;37.05;;;19.52;;
37701;SDS011;23548;51.196;6.838;2024-01-15T09:25:19;41.13;;;19.80;;
37701;SDS011;23548;51.196;6.838;2024-01-15T09:27:45;39.33;;;20.05;;
37701;SDS011;23548;51.196;6.838;2024-01-15T09:30:10;34.95;;;19.25;;
37701;SDS011;23548;51.196;6.838;2024-01-15T09:32:37;35.28;;;20.48;;
37701;SDS011;23548;51.196;6.838;2024-01-15T09:35:02;32.58;;;16.55;;
37701;SDS011;23548;51.196;6.838;2024-01-15T09:37:28;31.25;;;17.75;;
37701;SDS011;23548;51.196;6.838;2024-01-15T09:39:54;31.45;;;17.55;;
37701;SDS011;23548;51.196;6.838;2024-01-15T09:42:21;32.20;;;17.20;;
37701;SDS011;23548;51.196;6.838;2024-01-15T09:44:49;32.05;;;17.50;;
37701;SDS011;23548;51.196;6.838;2024-01-15T09:47:16;31.38;;;18.02;;
37701;SDS011;23548;51.196;6.838;2024-01-15T09:49:43;29.13;;;17.13;;
37701;SDS011;23548;51.196;6.838;2024-01-15T09:52:10;30.30;;;17.95;;
37701;SDS011;23548;51.196;6.838;2024-01-15T09:54:37;29.70;;;16.65;;
37701;SDS011;23548;51.196;6.838;2024-01-15T09:57:04;27.73;;;16.95;;
37701;SDS011;23548;51.196;6.838;2024-01-15T09:59:30;30.08;;;16.40;;
37701;SDS011;23548;51.196;6.838;2024-01-15T10:01:57;27.15;;;16.13;;
37701;SDS011;23548;51.196;6.838;2024-01-15T10:04:24;31.88;;;17.05;;
37701;SDS011;23548;51.196;6.838;2024-01-15T10:06:50;27.42;;;16.15;;
37701;SDS011;23548;51.196;6.838;2024-01-15T10:09:17;28.45;;;15.98;;
37701;SDS011;23548;51.196;6.838;2024-01-15T10:11:43;24.63;;;14.55;;
37701;SDS011;23548;51.196;6.838;2024-01-15T10:14:10;27.23;;;14.80;;
37701;SDS011;23548;51.196;6.838;2024-01-15T10:16:38;22.02;;;13.88;;
37701;SDS011;23548;51.196;6.838;2024-01-15T10:19:04;20.48;;;12.23;;
37701;SDS011;23548;51.196;6.838;2024-01-15T10:21:31;20.63;;;12.90;;
37701;SDS011;23548;51.196;6.838;2024-01-15T10:24:00;18.60;;;11.68;;
37701;SDS011;23548;51.196;6.838;2024-01-15T10:26:27;17.40;;;11.18;;
37701;SDS011;23548;51.196;6.838;2024-01-15T10:28:53;16.13;;;9.25;;
37701;SDS011;23548;51.196;6.838;2024-01-15T10:31:19;20.02;;;11.40;;
37701;SDS011;23548;51.196;6.838;2024-01-15T10:33:47;18.08;;;10.10;;
37701;SDS011;23548;51.196;6.838;2024-01-15T10:36:14;16.02;;;9.02;;
37701;SDS011;23548;51.196;6.838;2024-01-15T10:38:42;17.45;;;9.20;;
37701;SDS011;23548;51.196;6.838;2024-01-15T10:41:08;15.02;;;8.75;;
37701;SDS011;23548;51.196;6.838;2024-01-15T10:43:34;12.98;;;8.65;;
37701;SDS011;23548;51.196;6.838;2024-01-15T10:46:00;14.38;;;7.63;;
37701;SDS011;23548;51.196;6.838;2024-01-15T10:48:27;15.52;;;8.52;;
37701;SDS011;23548;51.196;6.838;2024-01-15T10:50:55;16.02;;;7.28;;
37701;SDS011;23548;51.196;6.838;2024-01-15T10:53:22;11.05;;;6.90;;
37701;SDS011;23548;51.196;6.838;2024-01-15T10:55:48;14.15;;;7.30;;
37701;SDS011;23548;51.196;6.838;2024-01-15T10:58:16;12.93;;;7.45;;
37701;SDS011;23548;51.196;6.838;2024-01-15T11:00:43;16.40;;;8.00;;
37701;SDS011;23548;51.196;6.838;2024-01-15T11:03:09;14.80;;;7.93;;
37701;SDS011;23548;51.196;6.838;2024-01-15T11:08:06;10.32;;;5.95;;
37701;SDS011;23548;51.196;6.838;2024-01-15T11:10:39;9.93;;;6.22;;
37701;SDS011;23548;51.196;6.838;2024-01-15T11:15:57;8.20;;;4.97;;
37701;SDS011;23548;51.196;6.838;2024-01-15T11:18:27;6.90;;;4.75;;
37701;SDS011;23548;51.196;6.838;2024-01-15T11:21:40;6.78;;;4.65;;
37701;SDS011;23548;51.196;6.838;2024-01-15T11:31:57;6.63;;;2.67;;
37701;SDS011;23548;51.196;6.838;2024-01-15T11:37:15;5.72;;;2.30;;
37701;SDS011;23548;51.196;6.838;2024-01-15T11:39:43;6.65;;;2.70;;
37701;SDS011;23548;51.196;6.838;2024-01-15T11:42:10;7.03;;;2.85;;
37701;SDS011;23548;51.196;6.838;2024-01-15T11:44:40;4.65;;;3.03;;
37701;SDS011;23548;51.196;6.838;2024-01-15T11:47:07;4.88;;;3.42;;
37701;SDS011;23548;51.196;6.838;2024-01-15T11:52:39;7.63;;;3.78;;
37701;SDS011;23548;51.196;6.838;2024-01-15T11:55:11;7.13;;;3.70;;
37701;SDS011;23548;51.196;6.838;2024-01-15T11:57:50;6.88;;;4.05;;
37701;SDS011;23548;51.196;6.838;2024-01-15T12:00:21;9.13;;;4.63;;
37701;SDS011;23548;51.196;6.838;2024-01-15T12:02:48;10.77;;;5.35;;
37701;SDS011;23548;51.196;6.838;2024-01-15T12:05:16;11.45;;;5.30;;
37701;SDS011;23548;51.196;6.838;2024-01-15T12:07:43;10.73;;;5.47;;
37701;SDS011;23548;51.196;6.838;2024-01-15T12:10:11;15.50;;;5.35;;
37701;SDS011;23548;51.196;6.838;2024-01-15T12:12:40;12.77;;;6.50;;
37701;SDS011;23548;51.196;6.838;2024-01-15T12:15:12;7.20;;;5.30;;
37701;SDS011;23548;51.196;6.838;2024-01-15T12:17:40;10.20;;;5.50;;
37701;SDS011;23548;51.196;6.838;2024-01-15T12:20:06;12.93;;;5.45;;
37701;SDS011;23548;51.196;6.838;2024-01-15T12:22:32;8.40;;;5.05;;
37701;SDS011;23548;51.196;6.838;2024-01-15T12:24:58;13.18;;;5.80;;
37701;SDS011;23548;51.196;6.838;2024-01-15T12:27:24;7.40;;;5.28;;
37701;SDS011;23548;51.196;6.838;2024-01-15T12:29:52;9.82;;;6.07;;
37701;SDS011;23548;51.196;6.838;2024-01-15T12:32:18;11.57;;;6.03;;
37701;SDS011;23548;51.196;6.838;2024-01-15T12:34:45;10.48;;;5.85;;
37701;SDS011;23548;51.196;6.838;2024-01-15T12:37:11;15.38;;;6.38;;
37701;SDS011;23548;51.196;6.838;2024-01-15T12:39:37;11.60;;;6.95;;
37701;SDS011;23548;51.196;6.838;2024-01-15T12:42:03;12.57;;;7.22;;
37701;SDS011;23548;51.196;6.838;2024-01-15T12:44:30;13.10;;;7.95;;
37701;SDS011;23548;51.196;6.838;2024-01-15T12:46:57;15.43;;;8.38;;
37701;SDS011;23548;51.196;6.838;2024-01-15T12:49:23;13.32;;;8.68;;
37701;SDS011;23548;51.196;6.838;2024-01-15T12:51:59;19.30;;;9.55;;
37701;SDS011;23548;51.196;6.838;2024-01-15T12:54:25;16.02;;;9.48;;
37701;SDS011;23548;51.196;6.838;2024-01-15T12:56:51;16.45;;;9.20;;
37701;SDS011;23548;51.196;6.838;2024-01-15T12:59:17;14.95;;;8.80;;
37701;SDS011;23548;51.196;6.838;2024-01-15T13:01:43;15.18;;;8.90;;
37701;SDS011;23548;51.196;6.838;2024-01-15T13:04:10;18.50;;;9.10;;
37701;SDS011;23548;51.196;6.838;2024-01-15T13:06:36;15.10;;;8.52;;
37701;SDS011;23548;51.196;6.838;2024-01-15T13:09:02;11.95;;;7.95;;
37701;SDS011;23548;51.196;6.838;2024-01-15T13:11:31;10.50;;;6.65;;
37701;SDS011;23548;51.196;6.838;2024-01-15T13:13:58;12.25;;;7.57;;
37701;SDS011;23548;51.196;6.838;2024-01-15T13:16:23;10.57;;;7.20;;
37701;SDS011;23548;51.196;6.838;2024-01-15T13:18:52;13.52;;;7.05;;
37701;SDS011;23548;51.196;6.838;2024-01-15T13:21:18;8.82;;;6.13;;
37701;SDS011;23548;51.196;6.838;2024-01-15T13:23:43;11.52;;;5.90;;
37701;SDS011;23548;51.196;6.838;2024-01-15T13:26:09;11.15;;;7.15;;
37701;SDS011;23548;51.196;6.838;2024-01-15T13:28:35;15.68;;;6.63;;
37701;SDS011;23548;51.196;6.838;2024-01-15T13:31:00;11.23;;;6.40;;
37701;SDS011;23548;51.196;6.838;2024-01-15T13:33:27;11.23;;;5.80;;
37701;SDS011;23548;51.196;6.838;2024-01-15T13:35:53;13.35;;;5.30;;
37701;SDS011;23548;51.196;6.838;2024-01-15T13:38:18;11.07;;;5.63;;
37701;SDS011;23548;51.196;6.838;2024-01-15T13:40:44;9.85;;;4.65;;
37701;SDS011;23548;51.196;6.838;2024-01-15T13:43:10;7.47;;;4.55;;
37701;SDS011;23548;51.196;6.838;2024-01-15T13:45:37;7.45;;;4.45;;
37701;SDS011;23548;51.196;6.838;2024-01-15T13:48:03;7.15;;;3.72;;
37701;SDS011;23548;51.196;6.838;2024-01-15T13:50:33;4.30;;;3.03;;
37701;SDS011;23548;51.196;6.838;2024-01-15T13:53:00;6.35;;;2.90;;
37701;SDS011;23548;51.196;6.838;2024-01-15T13:55:25;6.43;;;2.80;;
37701;SDS011;23548;51.196;6.838;2024-01-15T13:57:51;4.07;;;2.53;;
37701;SDS011;23548;51.196;6.838;2024-01-15T14:00:17;4.65;;;3.15;;
37701;SDS011;23548;51.196;6.838;2024-01-15T14:02:45;4.72;;;2.45;;
37701;SDS011;23548;51.196;6.838;2024-01-15T14:05:11;4.10;;;2.38;;
37701;SDS011;23548;51.196;6.838;2024-01-15T14:07:38;5.65;;;3.17;;
37701;SDS011;23548;51.196;6.838;2024-01-15T14:10:12;7.00;;;3.35;;
37701;SDS011;23548;51.196;6.838;2024-01-15T14:12:38;4.35;;;3.08;;
37701;SDS011;23548;51.196;6.838;2024-01-15T14:15:05;4.65;;;2.28;;
37701;SDS011;23548;51.196;6.838;2024-01-15T14:17:33;4.03;;;2.88;;
37701;SDS011;23548;51.196;6.838;2024-01-15T14:19:59;4.10;;;3.05;;
37701;SDS011;23548;51.196;6.838;2024-01-15T14:22:25;2.90;;;2.20;;
37701;SDS011;23548;51.196;6.838;2024-01-15T14:24:54;5.30;;;2.40;;
37701;SDS011;23548;51.196;6.838;2024-01-15T14:27:19;4.60;;;3.00;;
37701;SDS011;23548;51.196;6.838;2024-01-15T14:29:46;5.03;;;2.85;;
37701;SDS011;23548;51.196;6.838;2024-01-15T14:32:12;4.40;;;2.53;;
37701;SDS011;23548;51.196;6.838;2024-01-15T14:34:38;3.72;;;2.40;;
37701;SDS011;23548;51.196;6.838;2024-01-15T14:37:03;3.25;;;2.78;;
37701;SDS011;23548;51.196;6.838;2024-01-15T14:39:29;4.30;;;2.55;;
37701;SDS011;23548;51.196;6.838;2024-01-15T14:41:59;5.57;;;2.55;;
37701;SDS011;23548;51.196;6.838;2024-01-15T14:44:25;3.55;;;2.30;;